createdAt,value
2018-11-26T00:00:40.332Z,21.87
2018-11-26T00:03:12.252Z,23.63
2018-11-26T00:05:42.700Z,22.60
2018-11-26T00:08:32.840Z,22.87
2018-11-26T00:11:15.754Z,22.27
2018-11-26T00:13:45.884Z,23.17
2018-11-26T00:16:16.015Z,22.20
2018-11-26T00:18:46.014Z,23.03
2018-11-26T00:21:16.272Z,22.17
2018-11-26T00:23:46.356Z,22.50
2018-11-26T00:26:16.698Z,21.93
2018-11-26T00:28:47.448Z,21.63
2018-11-26T00:31:18.488Z,21.97
2018-11-26T00:33:48.825Z,22.57
2018-11-26T00:36:19.717Z,21.13
2018-11-26T00:38:50.935Z,23.10
2018-11-26T00:41:21.841Z,21.13
2018-11-26T00:43:52.200Z,23.60
2018-11-26T00:46:22.659Z,22.57
2018-11-26T00:48:52.957Z,22.73
2018-11-26T00:51:23.354Z,22.13
2018-11-26T00:53:53.632Z,21.97
2018-11-26T00:56:23.722Z,21.60
2018-11-26T00:58:54.825Z,23.30
2018-11-26T01:01:25.123Z,22.27
2018-11-26T01:03:55.979Z,21.83
2018-11-26T01:06:26.711Z,23.17
2018-11-26T01:08:57.933Z,23.27
2018-11-26T01:11:28.188Z,23.67
2018-11-26T01:13:58.497Z,23.57
2018-11-26T01:16:28.819Z,23.30
2018-11-26T01:18:59.531Z,23.50
2018-11-26T01:21:29.889Z,23.23
2018-11-26T01:24:00.345Z,23.30
2018-11-26T01:26:30.567Z,23.00
2018-11-26T01:29:01.860Z,24.63
2018-11-26T01:31:32.314Z,24.33
2018-11-26T01:34:03.251Z,25.97
2018-11-26T01:36:34.665Z,23.87
2018-11-26T01:39:06.877Z,24.57
2018-11-26T01:41:37.860Z,24.33
2018-11-26T01:44:08.875Z,26.40
2018-11-26T01:46:39.278Z,23.67
2018-11-26T01:49:10.272Z,23.47
2018-11-26T01:51:41.191Z,24.37
2018-11-26T01:54:12.200Z,23.97
2018-11-26T01:56:42.225Z,23.27
2018-11-26T01:59:12.670Z,23.90
2018-11-26T02:01:44.089Z,23.17
2018-11-26T02:04:14.014Z,24.23
2018-11-26T02:06:44.864Z,22.97
2018-11-26T02:09:15.288Z,22.87
2018-11-26T02:11:46.096Z,23.93
2018-11-26T02:14:16.314Z,22.93
2018-11-26T02:16:46.381Z,23.20
2018-11-26T02:19:16.688Z,23.93
2018-11-26T02:21:47.412Z,24.50
2018-11-26T02:24:17.766Z,24.23
2018-11-26T02:26:48.215Z,23.73
2018-11-26T02:29:18.458Z,23.40
2018-11-26T02:31:48.688Z,25.33
2018-11-26T02:34:19.003Z,25.17
2018-11-26T02:36:49.348Z,25.13
2018-11-26T02:39:19.728Z,25.37
2018-11-26T02:41:50.420Z,25.93
2018-11-26T02:44:21.286Z,26.00
2018-11-26T02:46:51.279Z,26.43
2018-11-26T02:49:22.232Z,25.37
2018-11-26T02:51:52.892Z,25.73
2018-11-26T02:54:23.173Z,25.17
2018-11-26T02:56:53.294Z,26.20
2018-11-26T02:59:23.689Z,24.50
2018-11-26T03:01:53.866Z,24.07
2018-11-26T03:04:24.119Z,24.43
2018-11-26T03:06:54.127Z,23.87
2018-11-26T03:09:24.667Z,23.87
2018-11-26T03:11:54.941Z,22.67
2018-11-26T03:14:25.628Z,23.27
2018-11-26T03:16:56.045Z,22.90
2018-11-26T03:19:26.225Z,22.60
2018-11-26T03:21:56.713Z,23.33
2018-11-26T03:24:27.665Z,22.80
2018-11-26T03:26:57.741Z,22.20
2018-11-26T03:29:27.812Z,22.90
2018-11-26T03:31:58.077Z,23.03
2018-11-26T03:34:28.295Z,23.23
2018-11-26T03:36:58.543Z,22.00
2018-11-26T03:39:28.962Z,24.47
2018-11-26T03:41:59.337Z,21.83
2018-11-26T03:44:29.842Z,22.93
2018-11-26T03:47:00.042Z,23.47
2018-11-26T03:49:30.266Z,23.70
2018-11-26T03:52:00.625Z,23.17
2018-11-26T04:01:21.485Z,21.43
2018-11-26T04:03:52.135Z,22.10
2018-11-26T04:06:22.292Z,22.70
2018-11-26T04:08:53.359Z,21.97
2018-11-26T04:11:24.093Z,22.67
2018-11-26T04:13:54.784Z,21.60
2018-11-26T04:16:25.120Z,22.27
2018-11-26T04:18:56.596Z,22.80
2018-11-26T04:21:26.556Z,24.13
2018-11-26T04:23:56.845Z,22.20
2018-11-26T04:26:27.044Z,22.97
2018-11-26T04:28:57.520Z,21.73
2018-11-26T04:31:27.718Z,23.30
2018-11-26T04:33:58.263Z,22.00
2018-11-26T04:36:28.388Z,21.93
2018-11-26T04:38:59.296Z,22.07
2018-11-26T04:41:29.594Z,22.73
2018-11-26T04:43:59.610Z,22.13
2018-11-26T04:46:30.947Z,22.17
2018-11-26T04:49:01.936Z,21.97
2018-11-26T04:51:32.488Z,21.23
2018-11-26T04:54:04.046Z,21.80
2018-11-26T04:56:34.357Z,21.80
2018-11-26T04:59:04.836Z,22.73
2018-11-26T05:01:35.351Z,20.40
2018-11-26T05:04:06.094Z,21.90
2018-11-26T05:06:36.817Z,22.57
2018-11-26T05:09:09.319Z,21.00
2018-11-26T05:11:39.999Z,21.20
2018-11-26T05:14:09.963Z,21.07
2018-11-26T05:16:40.339Z,22.13
2018-11-26T05:19:10.854Z,21.57
2018-11-26T05:21:41.167Z,21.67
2018-11-26T05:24:11.287Z,21.13
2018-11-26T05:26:42.147Z,22.40
2018-11-26T05:29:13.845Z,21.53
2018-11-26T05:31:44.379Z,22.63
2018-11-26T05:34:14.433Z,22.13
2018-11-26T05:36:44.669Z,20.53
2018-11-26T05:39:14.875Z,20.87
2018-11-26T05:41:45.176Z,20.37
2018-11-26T05:44:15.460Z,19.97
2018-11-26T05:46:45.601Z,19.37
2018-11-26T05:49:17.432Z,19.17
2018-11-26T05:51:47.414Z,20.40
2018-11-26T05:54:20.464Z,19.97
2018-11-26T05:56:50.809Z,18.97
2018-11-26T05:59:21.891Z,20.17
2018-11-26T06:01:52.694Z,20.50
2018-11-26T06:04:23.219Z,20.10
2018-11-26T06:06:53.904Z,20.00
2018-11-26T06:09:24.284Z,20.27
2018-11-26T06:11:54.380Z,19.17
2018-11-26T06:14:24.727Z,20.97
2018-11-26T06:16:55.232Z,19.93
2018-11-26T06:19:25.522Z,19.70
2018-11-26T06:21:55.859Z,20.90
2018-11-26T06:24:26.125Z,21.20
2018-11-26T06:26:56.823Z,20.53
2018-11-26T06:29:27.745Z,20.50
2018-11-26T06:31:57.875Z,21.83
2018-11-26T06:34:29.251Z,20.53
2018-11-26T06:36:59.760Z,19.23
2018-11-26T06:39:29.885Z,21.30
2018-11-26T06:42:00.036Z,20.80
2018-11-26T06:44:30.670Z,20.33
2018-11-26T06:47:00.838Z,21.87
2018-11-26T06:49:30.973Z,20.23
2018-11-26T06:52:01.415Z,21.63
2018-11-26T06:54:31.583Z,21.40
2018-11-26T06:57:01.761Z,20.83
2018-11-26T06:59:31.847Z,20.60
2018-11-26T07:02:02.099Z,21.43
2018-11-26T07:04:32.769Z,22.40
2018-11-26T07:07:03.307Z,23.37
2018-11-26T07:09:33.857Z,22.13
2018-11-26T07:12:04.958Z,22.03
2018-11-26T07:14:36.541Z,22.17
2018-11-26T07:17:07.034Z,21.57
2018-11-26T07:19:37.395Z,22.10
2018-11-26T07:22:07.615Z,22.90
2018-11-26T07:24:38.209Z,21.60
2018-11-26T07:27:08.375Z,21.80
2018-11-26T07:29:39.543Z,22.27
2018-11-26T07:32:09.835Z,21.67
2018-11-26T07:34:40.331Z,22.53
2018-11-26T07:37:10.583Z,22.63
2018-11-26T07:39:40.750Z,22.20
2018-11-26T07:42:11.031Z,21.83
2018-11-26T07:44:43.010Z,22.70
2018-11-26T07:47:13.628Z,23.10
2018-11-26T07:49:44.270Z,22.87
2018-11-26T07:52:16.186Z,23.27
2018-11-26T07:54:47.043Z,24.07
2018-11-26T07:57:17.525Z,23.27
2018-11-26T07:59:48.432Z,23.87
2018-11-26T08:02:19.288Z,24.43
2018-11-26T08:04:49.537Z,23.10
2018-11-26T08:07:19.722Z,22.67
2018-11-26T08:09:50.222Z,24.07
2018-11-26T08:12:20.974Z,24.60
2018-11-26T08:14:51.546Z,23.53
2018-11-26T08:17:21.832Z,23.77
2018-11-26T08:19:52.135Z,26.73
2018-11-26T08:22:22.564Z,27.53
2018-11-26T08:24:53.327Z,24.77
2018-11-26T08:27:23.535Z,23.37
2018-11-26T08:29:53.559Z,24.30
2018-11-26T08:32:24.826Z,22.90
2018-11-26T08:34:56.217Z,23.23
2018-11-26T08:37:33.347Z,23.20
2018-11-26T08:40:08.685Z,23.30
2018-11-26T08:42:45.911Z,23.00
2018-11-26T08:45:20.790Z,23.20
2018-11-26T08:47:56.500Z,23.00
2018-11-26T08:50:27.008Z,24.23
2018-11-26T08:52:57.392Z,23.83
2018-11-26T08:55:27.505Z,23.97
2018-11-26T08:57:57.852Z,23.37
2018-11-26T09:00:28.994Z,22.70
2018-11-26T09:03:05.999Z,23.20
2018-11-26T09:05:41.786Z,23.50
2018-11-26T09:08:12.127Z,24.87
2018-11-26T09:10:42.580Z,24.67
2018-11-26T09:13:14.069Z,23.90
2018-11-26T09:15:45.165Z,23.57
2018-11-26T09:18:16.919Z,24.10
2018-11-26T09:20:47.283Z,24.43
2018-11-26T09:23:18.271Z,25.07
2018-11-26T09:25:48.534Z,24.87
2018-11-26T09:28:19.608Z,24.33
2018-11-26T09:30:50.296Z,24.90
2018-11-26T09:33:20.421Z,25.63
2018-11-26T09:35:50.913Z,25.27
2018-11-26T09:38:21.193Z,25.37
2018-11-26T09:40:51.909Z,25.37
2018-11-26T09:43:22.369Z,25.87
2018-11-26T09:45:52.706Z,25.07
2018-11-26T09:48:23.359Z,27.90
2018-11-26T09:50:53.933Z,27.40
2018-11-26T09:53:24.206Z,27.67
2018-11-26T09:55:54.435Z,28.00
2018-11-26T09:58:24.647Z,28.00
2018-11-26T10:00:55.221Z,29.27
2018-11-26T10:03:25.351Z,28.10
2018-11-26T10:05:55.406Z,28.83
2018-11-26T10:08:25.806Z,27.53
2018-11-26T10:10:56.230Z,27.80
2018-11-26T10:13:26.522Z,28.10
2018-11-26T10:15:56.810Z,28.07
2018-11-26T10:18:27.089Z,28.80
2018-11-26T10:20:57.313Z,27.63
2018-11-26T10:23:27.914Z,27.73
2018-11-26T10:25:58.450Z,29.47
2018-11-26T10:28:28.845Z,28.93
2018-11-26T10:30:59.318Z,28.37
2018-11-26T10:33:29.822Z,29.13
2018-11-26T10:36:01.144Z,28.63
2018-11-26T10:38:31.430Z,30.03
2018-11-26T10:41:02.354Z,28.87
2018-11-26T10:43:32.848Z,30.33
2018-11-26T10:46:03.490Z,30.77
2018-11-26T10:48:34.038Z,29.83
2018-11-26T10:51:05.033Z,31.73
2018-11-26T10:53:35.675Z,30.83
2018-11-26T10:56:07.036Z,31.13
2018-11-26T10:58:38.349Z,31.33
2018-11-26T11:01:14.334Z,34.33
2018-11-26T11:03:44.604Z,32.50
2018-11-26T11:06:15.068Z,33.27
2018-11-26T11:08:45.203Z,33.13
2018-11-26T11:11:16.479Z,32.03
2018-11-26T11:13:46.289Z,33.43
2018-11-26T11:16:16.840Z,33.73
2018-11-26T11:18:47.325Z,33.40
2018-11-26T11:21:18.242Z,34.00
2018-11-26T11:23:48.581Z,35.40
2018-11-26T11:26:18.797Z,36.97
2018-11-26T11:28:49.965Z,35.63
2018-11-26T11:31:20.857Z,35.87
2018-11-26T11:33:51.654Z,37.03
2018-11-26T11:36:22.758Z,38.80
2018-11-26T11:38:53.306Z,36.57
2018-11-26T11:41:24.576Z,37.97
2018-11-26T11:43:56.080Z,39.50
2018-11-26T11:46:28.721Z,40.47
2018-11-26T11:48:58.825Z,40.53
2018-11-26T11:51:29.646Z,41.63
2018-11-26T11:54:00.750Z,42.50
2018-11-26T11:56:31.215Z,42.83
2018-11-26T11:59:01.569Z,43.47
2018-11-26T12:01:32.035Z,42.77
2018-11-26T12:04:03.135Z,44.20
2018-11-26T12:06:33.513Z,41.80
2018-11-26T12:09:05.561Z,41.87
2018-11-26T12:11:36.967Z,39.97
2018-11-26T12:14:07.195Z,39.83
2018-11-26T12:16:38.241Z,36.63
2018-11-26T12:19:09.041Z,35.87
2018-11-26T12:21:39.695Z,35.50
2018-11-26T12:24:10.009Z,34.77
2018-11-26T12:26:41.121Z,35.03
2018-11-26T12:29:11.415Z,35.17
2018-11-26T12:31:41.958Z,35.10
2018-11-26T12:34:12.233Z,35.33
2018-11-26T12:36:42.732Z,37.03
2018-11-26T12:39:14.472Z,37.50
2018-11-26T12:41:45.272Z,37.73
2018-11-26T12:44:15.690Z,40.23
2018-11-26T12:46:47.123Z,40.40
2018-11-26T12:49:17.426Z,38.17
2018-11-26T12:51:48.161Z,38.43
2018-11-26T12:54:19.133Z,37.13
2018-11-26T12:56:50.013Z,37.50
2018-11-26T12:59:20.535Z,35.60
2018-11-26T13:01:51.249Z,35.77
2018-11-26T13:04:21.553Z,35.33
2018-11-26T13:06:51.951Z,35.50
2018-11-26T13:09:22.192Z,33.53
2018-11-26T13:11:52.639Z,33.70
2018-11-26T13:14:23.186Z,33.43
2018-11-26T13:16:54.564Z,32.33
2018-11-26T13:19:25.275Z,31.90
2018-11-26T13:21:55.710Z,35.07
2018-11-26T13:24:26.219Z,32.40
2018-11-26T13:26:56.748Z,33.47
2018-11-26T13:29:27.074Z,34.57
2018-11-26T13:31:57.371Z,34.60
2018-11-26T13:34:27.596Z,34.37
2018-11-26T13:36:57.952Z,34.33
2018-11-26T13:39:28.877Z,34.83
2018-11-26T13:41:59.016Z,34.73
2018-11-26T13:44:29.380Z,34.77
2018-11-26T13:46:59.953Z,35.37
2018-11-26T13:49:30.742Z,35.77
2018-11-26T13:52:01.886Z,35.83
2018-11-26T13:54:32.809Z,34.53
2018-11-26T13:57:02.944Z,37.40
2018-11-26T13:59:34.096Z,37.83
2018-11-26T14:02:05.100Z,41.07
2018-11-26T14:04:36.324Z,39.50
2018-11-26T14:07:08.585Z,37.90
2018-11-26T14:09:39.150Z,38.93
2018-11-26T14:12:09.662Z,38.17
2018-11-26T14:14:40.538Z,37.87
2018-11-26T14:17:10.622Z,37.37
2018-11-26T14:19:40.873Z,37.33
2018-11-26T14:22:11.919Z,37.53
2018-11-26T14:24:42.950Z,38.10
2018-11-26T14:27:13.923Z,38.60
2018-11-26T14:29:44.258Z,37.27
2018-11-26T14:32:14.753Z,38.27
2018-11-26T14:34:45.477Z,38.00
2018-11-26T14:37:15.737Z,36.90
2018-11-26T14:39:47.472Z,37.10
2018-11-26T14:42:18.484Z,37.60
2018-11-26T14:44:49.435Z,37.60
2018-11-26T14:47:20.149Z,36.30
2018-11-26T14:49:50.510Z,35.03
2018-11-26T14:52:22.802Z,37.73
2018-11-26T14:54:54.191Z,36.93
2018-11-26T14:57:25.442Z,39.00
2018-11-26T14:59:56.252Z,41.07
2018-11-26T15:02:26.807Z,39.47
2018-11-26T15:04:58.832Z,38.87
2018-11-26T15:07:32.158Z,39.23
2018-11-26T15:10:02.743Z,40.57
2018-11-26T15:12:33.265Z,41.63
2018-11-26T15:15:03.488Z,39.60
2018-11-26T15:17:34.629Z,40.90
2018-11-26T15:20:07.245Z,39.70
2018-11-26T15:22:37.745Z,40.37
2018-11-26T15:25:10.257Z,40.07
2018-11-26T15:27:40.937Z,38.93
2018-11-26T15:30:14.472Z,38.07
2018-11-26T15:32:45.461Z,38.13
2018-11-26T15:35:19.811Z,38.77
2018-11-26T15:37:50.452Z,38.57
2018-11-26T15:40:21.552Z,38.43
2018-11-26T15:42:52.936Z,38.23
2018-11-26T15:45:26.552Z,38.47
2018-11-26T15:47:58.738Z,39.07
2018-11-26T15:50:29.593Z,38.57
2018-11-26T15:53:00.300Z,38.00
2018-11-26T15:55:30.695Z,38.13
2018-11-26T15:58:00.974Z,37.93
2018-11-26T16:00:31.607Z,40.23
2018-11-26T16:03:01.804Z,39.07
2018-11-26T16:05:33.075Z,37.37
2018-11-26T16:08:06.266Z,38.17
2018-11-26T16:10:37.715Z,42.60
2018-11-26T16:13:09.418Z,43.57
2018-11-26T16:15:42.084Z,42.83
2018-11-26T16:18:18.613Z,42.37
2018-11-26T16:27:04.398Z,43.13
2018-11-26T16:29:35.052Z,41.30
2018-11-26T16:32:05.406Z,46.13
2018-11-26T16:50:11.800Z,45.00
2018-11-26T16:52:42.566Z,48.20
2018-11-26T16:55:13.736Z,44.00
2018-11-26T16:57:44.324Z,44.20
2018-11-26T17:00:24.983Z,44.77
2018-11-26T17:02:59.970Z,42.23
2018-11-26T17:05:33.496Z,57.83
2018-11-26T17:08:04.015Z,53.27
2018-11-26T17:10:34.744Z,43.93
2018-11-26T17:13:05.274Z,44.93
2018-11-26T17:18:18.440Z,45.53
2018-11-26T17:20:54.075Z,44.57
2018-11-26T17:23:24.428Z,47.43
2018-11-26T17:25:55.189Z,42.63
2018-11-26T17:28:28.117Z,43.43
2018-11-26T17:30:59.183Z,56.90
2018-11-26T17:33:30.120Z,43.00
2018-11-26T17:36:00.167Z,41.53
2018-11-26T17:38:30.803Z,56.93
2018-11-26T17:41:01.141Z,41.00
2018-11-26T17:43:31.625Z,41.00
2018-11-26T17:46:01.992Z,42.90
2018-11-26T17:48:33.000Z,42.40
2018-11-26T17:51:03.598Z,41.63
2018-11-26T17:53:34.219Z,41.23
2018-11-26T17:56:11.777Z,47.03
2018-11-26T17:58:41.979Z,41.30
2018-11-26T18:01:14.876Z,40.10
2018-11-26T18:03:46.274Z,40.80
2018-11-26T18:06:17.098Z,41.90
2018-11-26T18:08:47.049Z,41.47
2018-11-26T18:11:17.965Z,42.60
2018-11-26T18:13:48.014Z,39.93
2018-11-26T18:16:18.287Z,41.47
2018-11-26T18:18:48.454Z,39.73
2018-11-26T18:21:18.672Z,39.87
2018-11-26T18:23:48.947Z,41.13
2018-11-26T18:26:19.128Z,39.43
2018-11-26T18:28:50.224Z,41.17
2018-11-26T18:31:20.544Z,43.17
2018-11-26T18:33:50.810Z,41.43
2018-11-26T18:36:21.510Z,39.47
2018-11-26T18:38:52.627Z,39.10
2018-11-26T18:41:23.028Z,39.80
2018-11-26T18:43:53.862Z,38.17
2018-11-26T18:46:23.971Z,40.70
2018-11-26T18:48:54.410Z,39.50
2018-11-26T18:51:24.722Z,39.17
2018-11-26T18:53:55.902Z,40.10
2018-11-26T18:56:26.844Z,39.50
2018-11-26T18:58:57.817Z,40.23
2018-11-26T19:01:29.012Z,38.00
2018-11-26T19:04:02.801Z,39.53
2018-11-26T19:06:33.285Z,39.03
2018-11-26T19:09:03.884Z,39.07
2018-11-26T19:11:46.540Z,40.97
2018-11-26T19:14:19.447Z,39.27
2018-11-26T19:16:51.289Z,39.77
2018-11-26T19:19:22.217Z,40.00
2018-11-26T19:21:52.496Z,40.03
2018-11-26T19:24:22.814Z,39.57
2018-11-26T19:26:53.096Z,40.83
2018-11-26T19:29:23.067Z,38.73
2018-11-26T19:31:56.260Z,40.17
2018-11-26T19:34:24.697Z,39.23
2018-11-26T19:36:55.200Z,38.83
2018-11-26T19:39:26.147Z,38.33
2018-11-26T19:41:56.757Z,39.23
2018-11-26T19:44:27.167Z,38.87
2018-11-26T19:46:58.021Z,39.00
2018-11-26T19:49:28.322Z,38.43
2018-11-26T19:51:58.622Z,37.73
2018-11-26T19:54:29.795Z,37.57
2018-11-26T19:57:00.228Z,38.17
2018-11-26T19:59:31.259Z,37.33
2018-11-26T20:02:02.345Z,36.90
2018-11-26T20:04:35.758Z,39.57
2018-11-26T20:07:06.677Z,39.23
2018-11-26T20:09:37.151Z,37.70
2018-11-26T20:12:08.026Z,36.67
2018-11-26T20:14:38.642Z,39.17
2018-11-26T20:17:09.163Z,35.90
2018-11-26T20:19:39.473Z,35.53
2018-11-26T20:22:09.862Z,34.13
2018-11-26T20:24:40.426Z,34.53
2018-11-26T20:27:10.917Z,33.70
2018-11-26T20:29:41.357Z,35.60
2018-11-26T20:32:15.509Z,36.13
2018-11-26T20:34:47.449Z,35.90
2018-11-26T20:37:17.811Z,40.90
2018-11-26T20:39:49.729Z,32.80
2018-11-26T20:42:19.303Z,33.97
2018-11-26T20:44:49.696Z,32.83
2018-11-26T20:47:20.014Z,35.83
2018-11-26T20:49:50.136Z,33.47
2018-11-26T20:52:21.203Z,31.37
2018-11-26T20:54:51.316Z,33.37
2018-11-26T20:57:22.464Z,32.73
2018-11-26T20:59:52.767Z,40.07
2018-11-26T21:02:23.608Z,35.80
2018-11-26T21:04:53.751Z,32.83
2018-11-26T21:07:24.079Z,31.70
2018-11-26T21:09:54.447Z,31.63
2018-11-26T21:12:25.717Z,33.33
2018-11-26T21:14:55.959Z,33.03
2018-11-26T21:17:26.462Z,32.73
2018-11-26T21:19:56.743Z,32.40
2018-11-26T21:22:29.710Z,31.77
2018-11-26T21:25:00.207Z,33.03
2018-11-26T21:30:34.991Z,33.87
2018-11-26T21:33:05.340Z,34.27
2018-11-26T21:35:35.676Z,33.77
2018-11-26T21:38:07.214Z,35.20
2018-11-26T21:40:37.570Z,34.57
2018-11-26T21:43:08.386Z,33.77
2018-11-26T21:45:49.181Z,35.00
2018-11-26T21:48:19.646Z,36.37
2018-11-26T21:50:50.310Z,34.63
2018-11-26T21:53:20.536Z,36.17
2018-11-26T21:55:50.890Z,38.97
2018-11-26T21:58:21.643Z,33.60
2018-11-26T22:00:53.484Z,33.73
2018-11-26T22:03:23.972Z,38.53
2018-11-26T22:05:54.396Z,35.70
2018-11-26T22:08:25.410Z,54.53
2018-11-26T22:10:55.647Z,39.53
2018-11-26T22:13:26.943Z,34.90
2018-11-26T22:15:57.948Z,34.53
2018-11-26T22:18:29.311Z,55.93
2018-11-26T22:21:00.545Z,37.27
2018-11-26T22:23:30.670Z,51.50
2018-11-26T22:26:00.855Z,44.97
2018-11-26T22:28:32.833Z,64.77
2018-11-26T22:31:02.983Z,47.83
2018-11-26T22:33:33.760Z,50.83
2018-11-26T22:36:03.888Z,40.57
2018-11-26T22:38:35.068Z,35.80
2018-11-26T22:41:06.855Z,42.70
2018-11-26T22:43:38.034Z,37.90
2018-11-26T22:46:08.409Z,35.97
2018-11-26T22:48:38.529Z,37.60
2018-11-26T22:51:09.521Z,36.90
2018-11-26T22:53:39.699Z,35.13
2018-11-26T22:56:09.957Z,37.83
2018-11-26T22:58:40.367Z,37.33
2018-11-26T23:01:12.363Z,33.90
2018-11-26T23:03:42.776Z,36.03
2018-11-26T23:06:13.226Z,33.70
2018-11-26T23:08:43.494Z,33.90
2018-11-26T23:11:13.874Z,33.80
2018-11-26T23:13:44.138Z,33.47
2018-11-26T23:16:14.198Z,34.63
2018-11-26T23:18:46.050Z,35.23
2018-11-26T23:21:16.062Z,33.87
2018-11-26T23:23:46.301Z,36.00
2018-11-26T23:26:16.904Z,35.03
2018-11-26T23:28:47.396Z,34.27
2018-11-26T23:31:17.478Z,35.07
2018-11-26T23:33:47.661Z,36.10
2018-11-26T23:36:18.600Z,35.87
2018-11-26T23:38:48.848Z,37.47
2018-11-26T23:41:20.419Z,33.47
2018-11-26T23:43:51.630Z,35.27
2018-11-26T23:46:21.801Z,35.80
2018-11-26T23:48:52.169Z,35.37
2018-11-26T23:51:22.514Z,34.60
2018-11-26T23:53:52.901Z,36.00
2018-11-26T23:56:24.036Z,35.77
2018-11-26T23:58:54.879Z,34.83
